Time;durP1;ratioP1;P1;durP2;ratioP2;P2;SDS_P1;SDS_P2;PMS_P1;PMS_P2;Temp;Humidity;BMP_temperature;BMP_pressure;BME280_temperature;BME280_humidity;BME280_pressure;Samples;Min_cycle;Max_cycle;Signal;HPM_P1;HPM_P2
2021/10/27 00:01:11;;;;;;;27.55;5.03;;;;;;;12.63;96.58;102186.16;5054454;28;20116;-84
2021/10/27 00:03:37;;;;;;;25.85;5.40;;;;;;;12.61;96.73;102195.25;5053463;28;20182;-85
2021/10/27 00:06:03;;;;;;;20.40;5.05;;;;;;;12.63;96.35;102186.16;5054640;28;20044;-85
2021/10/27 00:08:28;;;;;;;26.38;5.15;;;;;;;12.63;96.75;102191.50;5054395;28;20036;-84
2021/10/27 00:10:54;;;;;;;23.95;5.38;;;;;;;12.63;96.22;102183.47;5053864;28;20047;-84
2021/10/27 00:13:20;;;;;;;28.80;5.18;;;;;;;12.62;96.39;102189.78;5052929;28;20366;-83
2021/10/27 00:15:45;;;;;;;29.70;5.07;;;;;;;12.63;96.78;102187.94;5053271;28;20122;-85
2021/10/27 00:18:12;;;;;;;31.75;5.13;;;;;;;12.61;97.23;102195.25;5053798;28;20025;-84
2021/10/27 00:20:37;;;;;;;26.92;5.70;;;;;;;12.61;96.77;102196.09;5053497;28;20033;-85
2021/10/27 00:23:02;;;;;;;22.58;4.55;;;;;;;12.59;97.24;102194.53;5054142;28;20123;-84
2021/10/27 00:25:28;;;;;;;27.25;5.13;;;;;;;12.58;97.10;102190.13;5053957;28;20037;-85
2021/10/27 00:27:53;;;;;;;25.75;5.60;;;;;;;12.56;97.03;102192.94;5053256;28;20037;-87
2021/10/27 00:30:19;;;;;;;23.27;5.20;;;;;;;12.54;97.98;102192.22;5054514;28;20458;-83
2021/10/27 00:32:44;;;;;;;23.90;5.15;;;;;;;12.59;97.26;102183.84;5053342;28;20036;-85
2021/10/27 00:35:09;;;;;;;25.52;5.63;;;;;;;12.61;97.69;102185.41;5053496;28;20538;-84
2021/10/27 00:37:35;;;;;;;26.38;5.22;;;;;;;12.67;97.12;102190.28;5051976;28;20031;-85
2021/10/27 00:40:02;;;;;;;25.80;5.30;;;;;;;12.68;97.18;102186.63;5053799;28;20025;-84
2021/10/27 00:42:27;;;;;;;22.40;5.57;;;;;;;12.77;96.67;102185.06;5053587;28;20073;-84
2021/10/27 00:44:53;;;;;;;24.75;5.30;;;;;;;12.74;96.39;102193.31;5052789;28;20029;-84
2021/10/27 00:47:18;;;;;;;19.63;5.63;;;;;;;12.72;96.48;102192.59;5053533;28;20119;-84
2021/10/27 00:49:46;;;;;;;30.10;6.78;;;;;;;12.70;97.05;102197.19;5052974;28;20039;-84
2021/10/27 00:52:15;;;;;;;16.67;5.38;;;;;;;12.70;96.50;102195.38;5053483;28;20036;-85
2021/10/27 00:54:43;;;;;;;21.63;6.55;;;;;;;12.68;96.89;102199.13;5051467;28;20436;-85
2021/10/27 00:57:09;;;;;;;38.90;7.35;;;;;;;12.63;97.35;102198.63;5053224;28;20033;-89
2021/10/27 00:59:40;;;;;;;18.35;6.80;;;;;;;12.61;97.43;102198.75;5053186;28;20071;-84
2021/10/27 01:02:06;;;;;;;22.13;6.80;;;;;;;12.57;97.53;102196.44;5052392;28;20040;-86
2021/10/27 01:04:32;;;;;;;24.25;6.93;;;;;;;12.51;97.44;102195.13;5053033;28;20032;-86
2021/10/27 01:06:58;;;;;;;18.90;6.97;;;;;;;12.41;97.85;102202.13;5052992;28;20103;-86
2021/10/27 01:09:23;;;;;;;32.95;7.38;;;;;;;12.34;98.60;102209.75;5053095;28;20524;-86
2021/10/27 01:11:49;;;;;;;34.95;7.35;;;;;;;12.32;99.11;102204.53;5052940;28;20120;-86
2021/10/27 01:14:15;;;;;;;21.27;7.07;;;;;;;12.33;99.03;102200.03;5053199;28;20466;-85
2021/10/27 01:16:41;;;;;;;26.83;6.40;;;;;;;12.34;99.05;102213.25;5052342;28;20060;-84
2021/10/27 01:19:07;;;;;;;26.77;6.88;;;;;;;12.32;99.26;102206.34;5053157;28;20542;-86
2021/10/27 01:21:33;;;;;;;27.05;6.65;;;;;;;12.30;99.55;102209.13;5052731;28;20567;-86
2021/10/27 01:23:59;;;;;;;24.50;6.45;;;;;;;12.28;99.09;102205.72;5052556;28;20064;-84
2021/10/27 01:26:27;;;;;;;21.70;6.95;;;;;;;12.31;99.60;102213.50;5052653;28;20401;-85
2021/10/27 01:28:53;;;;;;;25.92;6.78;;;;;;;12.37;99.68;102212.19;5052314;28;20033;-84
2021/10/27 01:31:19;;;;;;;25.13;7.05;;;;;;;12.41;98.91;102216.31;5053294;28;20055;-85
2021/10/27 01:33:45;;;;;;;30.42;6.03;;;;;;;12.43;98.95;102211.69;5052270;28;20521;-87
2021/10/27 01:36:14;;;;;;;26.23;7.13;;;;;;;12.43;98.86;102197.53;5055313;28;20029;-87
2021/10/27 01:38:40;;;;;;;35.67;7.93;;;;;;;12.44;98.98;102193.88;5055101;28;20380;-85
2021/10/27 01:41:05;;;;;;;29.08;6.53;;;;;;;12.46;98.86;102197.28;5055783;28;20481;-85
2021/10/27 01:43:30;;;;;;;24.35;6.47;;;;;;;12.42;98.71;102183.34;5059890;28;20033;-85
2021/10/27 01:45:56;;;;;;;26.60;5.68;;;;;;;12.42;98.39;102195.81;5036540;28;20079;-85
2021/10/27 01:48:21;;;;;;;23.10;4.93;;;;;;;12.41;98.71;102194.13;5055670;28;20041;-84
2021/10/27 01:50:47;;;;;;;21.15;5.00;;;;;;;12.40;98.61;102195.94;5051877;28;20466;-84
2021/10/27 01:53:13;;;;;;;25.10;4.93;;;;;;;12.40;98.21;102190.59;5051460;28;20033;-86
2021/10/27 01:55:42;;;;;;;22.35;4.43;;;;;;;12.40;98.35;102190.59;5052432;28;20025;-86
2021/10/27 01:58:08;;;;;;;20.85;4.53;;;;;;;12.41;97.97;102186.97;5052295;28;20025;-86
2021/10/27 02:00:34;;;;;;;23.38;4.47;;;;;;;12.45;97.75;102193.78;5052257;28;20041;-86
2021/10/27 02:03:00;;;;;;;17.20;4.18;;;;;;;12.50;97.28;102177.41;5052064;28;20106;-81
2021/10/27 02:05:25;;;;;;;21.58;4.68;;;;;;;12.51;97.32;102181.78;5051062;28;20120;-83
2021/10/27 02:07:50;;;;;;;14.43;3.58;;;;;;;12.52;96.85;102175.44;5054573;28;20082;-82
2021/10/27 02:10:16;;;;;;;14.50;3.58;;;;;;;12.49;96.79;102179.19;5056502;28;20033;-83
2021/10/27 02:12:43;;;;;;;20.08;5.03;;;;;;;12.48;97.05;102181.97;5055858;28;20126;-87
2021/10/27 02:15:10;;;;;;;15.32;3.72;;;;;;;12.47;96.71;102175.81;5055356;28;20075;-83
2021/10/27 02:17:36;;;;;;;15.70;3.83;;;;;;;12.44;96.89;102169.88;5056031;28;20049;-82
2021/10/27 02:20:03;;;;;;;17.85;4.05;;;;;;;12.40;97.59;102166.56;5055461;28;20493;-82
2021/10/27 02:22:29;;;;;;;20.95;4.75;;;;;;;12.39;97.21;102159.56;5055980;28;20036;-84
2021/10/27 02:24:54;;;;;;;22.48;4.25;;;;;;;12.37;97.64;102171.31;5055537;28;20385;-83
2021/10/27 02:27:20;;;;;;;15.63;4.35;;;;;;;12.35;97.45;102172.25;5055774;28;20033;-83
2021/10/27 02:29:45;;;;;;;15.73;3.78;;;;;;;12.35;97.33;102169.59;5055433;28;20484;-82
2021/10/27 02:32:10;;;;;;;20.95;4.68;;;;;;;12.34;97.97;102172.38;5055733;28;20037;-82
2021/10/27 02:34:36;;;;;;;20.20;4.22;;;;;;;12.34;97.84;102167.03;5055773;28;20031;-82
2021/10/27 02:37:02;;;;;;;13.63;4.05;;;;;;;12.35;97.84;102172.25;5055292;28;20110;-82
2021/10/27 02:39:27;;;;;;;20.75;4.07;;;;;;;12.34;97.53;102178.56;5055745;28;20370;-82
2021/10/27 02:41:53;;;;;;;14.38;3.92;;;;;;;12.39;97.26;102180.91;5053956;28;20056;-82
2021/10/27 02:44:19;;;;;;;21.60;4.72;;;;;;;12.39;97.07;102175.56;5055481;28;20393;-81
2021/10/27 02:46:45;;;;;;;18.27;3.83;;;;;;;12.38;96.88;102184.53;5055846;28;20040;-83
2021/10/27 02:49:12;;;;;;;18.38;4.28;;;;;;;12.42;97.04;102186.00;5055503;28;20033;-83
2021/10/27 02:51:37;;;;;;;26.27;4.53;;;;;;;12.45;96.59;102188.44;5055730;28;20071;-84
2021/10/27 02:54:03;;;;;;;27.13;5.13;;;;;;;12.46;96.58;102178.59;5053732;28;20048;-88
2021/10/27 02:56:28;;;;;;;16.95;4.63;;;;;;;12.44;96.54;102178.72;5054530;28;20422;-85
2021/10/27 02:58:53;;;;;;;20.90;4.35;;;;;;;12.43;96.46;102176.16;5055141;28;20029;-85
2021/10/27 03:01:19;;;;;;;16.50;4.50;;;;;;;12.33;96.96;102176.00;5055442;28;20044;-85
2021/10/27 03:03:45;;;;;;;18.48;4.53;;;;;;;12.25;97.08;102168.59;5054191;28;20044;-85
2021/10/27 03:06:10;;;;;;;17.40;3.88;;;;;;;12.19;97.39;102174.41;5054964;28;20397;-84
2021/10/27 03:08:35;;;;;;;23.35;4.40;;;;;;;12.17;97.98;102176.34;5053924;28;20035;-84
2021/10/27 03:11:01;;;;;;;18.17;4.47;;;;;;;12.20;97.93;102178.78;5054875;28;20037;-84
2021/10/27 03:13:27;;;;;;;21.10;5.43;;;;;;;12.21;97.74;102174.28;5055317;28;20106;-84
2021/10/27 03:15:52;;;;;;;19.63;5.18;;;;;;;12.21;98.13;102176.97;5054388;28;20064;-83
2021/10/27 03:18:17;;;;;;;20.10;4.90;;;;;;;12.21;98.06;102179.63;5054507;28;20033;-84
2021/10/27 03:20:43;;;;;;;18.83;5.32;;;;;;;12.21;98.13;102176.97;5054915;28;20033;-83
2021/10/27 03:23:09;;;;;;;19.20;4.75;;;;;;;12.22;98.06;102187.50;5053505;28;20060;-83
2021/10/27 03:25:34;;;;;;;19.13;4.60;;;;;;;12.25;98.19;102184.59;5055152;28;20035;-84
2021/10/27 03:28:00;;;;;;;18.95;4.78;;;;;;;12.26;97.39;102182.81;5054459;28;20040;-83
2021/10/27 03:30:25;;;;;;;14.30;4.78;;;;;;;12.25;97.73;102192.63;5055046;28;20033;-83
2021/10/27 03:32:51;;;;;;;24.60;5.93;;;;;;;12.23;97.87;102177.72;5054027;28;20079;-85
2021/10/27 03:35:17;;;;;;;14.32;5.57;;;;;;;12.21;97.86;102175.16;5054894;28;20115;-83
2021/10/27 03:37:43;;;;;;;15.45;5.07;;;;;;;12.22;97.71;102178.66;5054578;28;20033;-82
2021/10/27 03:40:09;;;;;;;18.42;5.10;;;;;;;12.24;97.96;102177.59;5054266;28;20057;-83
2021/10/27 03:42:35;;;;;;;24.15;5.68;;;;;;;12.27;97.65;102181.81;5053476;28;20473;-84
2021/10/27 03:45:02;;;;;;;14.52;4.72;;;;;;;12.30;97.44;102190.47;5054499;28;20033;-84
2021/10/27 03:47:27;;;;;;;25.05;5.82;;;;;;;12.31;97.38;102188.63;5054977;28;20029;-84
2021/10/27 03:49:54;;;;;;;21.80;4.93;;;;;;;12.30;97.50;102192.25;5052564;28;20028;-85
2021/10/27 03:52:20;;;;;;;20.10;5.70;;;;;;;12.28;98.04;102192.38;5053462;28;20098;-84
2021/10/27 03:54:46;;;;;;;22.33;5.45;;;;;;;12.26;98.06;102190.81;5054616;28;20033;-84
2021/10/27 03:57:11;;;;;;;26.30;5.57;;;;;;;12.23;98.33;102185.72;5052798;28;20029;-85
2021/10/27 03:59:36;;;;;;;19.92;5.65;;;;;;;12.20;99.06;102176.13;5054496;28;20040;-84
2021/10/27 04:02:02;;;;;;;25.40;6.22;;;;;;;12.17;99.16;102181.69;5053597;28;20060;-84
2021/10/27 04:04:28;;;;;;;23.85;6.35;;;;;;;12.14;99.68;102192.59;5054497;28;20405;-84
2021/10/27 04:06:53;;;;;;;28.08;6.90;;;;;;;12.13;99.88;102188.22;5054400;28;20037;-84
2021/10/27 04:09:18;;;;;;;22.58;5.70;;;;;;;12.11;99.82;102190.16;5053742;28;20487;-83
2021/10/27 04:11:44;;;;;;;22.00;6.20;;;;;;;12.08;99.95;102182.41;5053964;28;20033;-85
2021/10/27 04:14:09;;;;;;;28.17;5.60;;;;;;;12.05;100.00;102182.63;5053591;28;20099;-84
2021/10/27 04:16:35;;;;;;;23.60;5.10;;;;;;;12.06;99.80;102184.31;5055786;28;20044;-85
2021/10/27 04:19:00;;;;;;;20.38;5.28;;;;;;;12.04;99.70;102184.44;5051971;28;20083;-83
2021/10/27 04:21:25;;;;;;;21.13;5.45;;;;;;;12.04;99.31;102183.59;5053802;28;20079;-84
2021/10/27 04:23:51;;;;;;;22.65;4.97;;;;;;;12.04;99.37;102188.91;5052894;28;20037;-85
2021/10/27 04:26:16;;;;;;;18.13;4.10;;;;;;;12.03;99.12;102185.38;5053515;28;20401;-86
2021/10/27 04:28:42;;;;;;;17.88;5.05;;;;;;;12.03;99.05;102182.72;5052119;28;20045;-85
2021/10/27 04:31:07;;;;;;;11.93;4.20;;;;;;;12.02;98.86;102180.16;5052741;28;20033;-84
2021/10/27 04:33:33;;;;;;;18.48;4.45;;;;;;;11.99;99.27;102178.59;5053854;28;20060;-85
2021/10/27 04:35:58;;;;;;;15.00;4.85;;;;;;;11.97;99.44;102185.84;5053296;28;20137;-84
2021/10/27 04:38:24;;;;;;;13.88;4.63;;;;;;;11.96;99.14;102186.84;5053980;28;20115;-84
2021/10/27 04:40:50;;;;;;;12.27;3.97;;;;;;;11.97;98.72;102181.38;5053428;28;20029;-85
2021/10/27 04:43:15;;;;;;;14.23;4.60;;;;;;;11.98;98.30;102195.56;5052850;28;20106;-85
2021/10/27 04:45:42;;;;;;;10.48;4.35;;;;;;;12.03;97.84;102188.06;5053675;28;20525;-86
2021/10/27 04:48:08;;;;;;;18.13;4.55;;;;;;;12.06;97.59;102184.31;5052817;28;20093;-84
2021/10/27 04:50:34;;;;;;;13.60;4.25;;;;;;;12.06;97.23;102190.50;5053671;28;20029;-83
2021/10/27 04:53:00;;;;;;;18.40;4.95;;;;;;;12.06;97.12;102190.50;5052678;28;20543;-84
2021/10/27 04:55:25;;;;;;;14.00;4.72;;;;;;;12.06;97.32;102192.31;5053786;28;20124;-85
2021/10/27 04:57:51;;;;;;;13.23;4.22;;;;;;;12.05;97.05;102191.47;5053385;28;20112;-83
2021/10/27 05:00:17;;;;;;;17.17;5.35;;;;;;;12.04;97.30;102195.09;5053163;28;20037;-87
2021/10/27 05:02:42;;;;;;;13.85;6.15;;;;;;;12.03;97.34;102187.22;5053256;28;20086;-85
2021/10/27 05:05:08;;;;;;;16.63;5.43;;;;;;;12.02;97.51;102188.16;5052924;28;20036;-83
2021/10/27 05:07:34;;;;;;;15.55;5.05;;;;;;;12.00;97.33;102190.94;5053407;28;20098;-85
2021/10/27 05:09:59;;;;;;;18.98;5.25;;;;;;;12.00;97.27;102193.63;5052120;28;20044;-83
2021/10/27 05:12:25;;;;;;;14.80;5.05;;;;;;;11.99;97.42;102205.28;5051129;28;20033;-84
2021/10/27 05:14:51;;;;;;;17.70;5.15;;;;;;;11.98;97.22;102195.56;5053976;28;20056;-83
2021/10/27 05:17:18;;;;;;;12.60;4.95;;;;;;;11.96;97.11;102194.84;5055808;28;20111;-85
2021/10/27 05:19:45;;;;;;;17.77;5.18;;;;;;;11.95;96.88;102191.31;5057076;28;20385;-87
2021/10/27 05:22:13;;;;;;;12.85;4.65;;;;;;;11.98;97.24;102190.22;5052629;28;20028;-85
2021/10/27 05:24:40;;;;;;;16.08;5.03;;;;;;;11.98;96.52;102183.06;5052767;28;20102;-86
2021/10/27 05:27:06;;;;;;;15.75;5.13;;;;;;;11.99;96.57;102179.44;5052533;28;20064;-85
2021/10/27 05:29:33;;;;;;;15.18;5.55;;;;;;;11.96;96.85;102179.66;5052850;28;20083;-84
2021/10/27 05:31:58;;;;;;;18.48;4.90;;;;;;;11.96;96.65;102179.66;5052609;28;20037;-85
2021/10/27 05:34:24;;;;;;;14.00;5.22;;;;;;;11.97;96.78;102186.72;5052416;28;20047;-86
2021/10/27 05:36:50;;;;;;;13.68;5.05;;;;;;;11.97;96.50;102185.84;5052859;28;20640;-86
2021/10/27 05:39:16;;;;;;;14.88;5.38;;;;;;;11.97;96.17;102188.50;5051927;28;20033;-87
2021/10/27 05:41:45;;;;;;;11.55;4.72;;;;;;;12.00;95.62;102188.28;5052335;28;20196;-85
2021/10/27 05:44:11;;;;;;;15.05;5.10;;;;;;;12.01;95.66;102189.16;5051824;28;20390;-87
2021/10/27 05:46:38;;;;;;;21.15;5.00;;;;;;;12.04;95.12;102191.59;5051092;28;20071;-84
2021/10/27 05:49:15;;;;;;;17.67;4.43;;;;;;;12.02;95.80;102198.84;5052480;28;20025;-84
2021/10/27 05:51:44;;;;;;;15.82;5.00;;;;;;;11.99;95.28;102183.94;5053636;28;20119;-84
2021/10/27 05:57:13;;;;;;;15.93;5.05;;;;;;;11.98;95.36;102188.41;5032354;28;20045;-92
2021/10/27 05:59:38;;;;;;;13.43;4.70;;;;;;;12.01;95.21;102190.00;5001247;28;20112;-90
2021/10/27 06:02:04;;;;;;;14.70;4.57;;;;;;;12.02;95.40;102196.16;5042546;28;20041;-89
2021/10/27 06:04:29;;;;;;;16.02;4.88;;;;;;;12.04;95.01;102199.59;5052349;28;20037;-89
2021/10/27 06:06:54;;;;;;;14.80;4.38;;;;;;;12.05;94.72;102194.13;5053298;28;20036;-85
2021/10/27 06:09:20;;;;;;;14.10;5.00;;;;;;;12.06;94.97;102184.31;5050658;28;20040;-79
2021/10/27 06:11:45;;;;;;;15.10;4.53;;;;;;;12.03;95.09;102193.38;5050629;28;20039;-84
2021/10/27 06:14:11;;;;;;;12.98;4.82;;;;;;;12.04;94.95;102205.75;5051737;28;20029;-80
2021/10/27 06:16:38;;;;;;;11.13;4.40;;;;;;;12.05;94.72;102190.63;5050519;28;20033;-87
2021/10/27 06:19:03;;;;;;;10.35;3.63;;;;;;;12.07;94.76;102202.88;5046791;28;20045;-80
2021/10/27 06:21:29;;;;;;;15.50;4.32;;;;;;;12.07;94.70;102196.69;5045963;28;20033;-84
2021/10/27 06:23:54;;;;;;;13.88;4.20;;;;;;;12.11;94.48;102195.50;5036433;28;20036;-86
2021/10/27 06:26:22;;;;;;;11.43;3.70;;;;;;;12.20;94.14;102196.63;5049700;28;20425;-83
2021/10/27 06:28:59;;;;;;;14.18;3.83;;;;;;;12.25;93.56;102205.97;5050524;28;20110;-83
2021/10/27 06:31:36;;;;;;;12.13;4.32;;;;;;;12.24;93.57;102204.28;5049979;28;20256;-83
2021/10/27 06:34:19;;;;;;;10.52;3.88;;;;;;;12.23;93.82;102207.91;5046918;28;20040;-84
2021/10/27 06:47:11;;;;;;;14.93;4.80;;;;;;;12.24;94.11;102248.78;5038271;28;20092;-86
2021/10/27 06:49:39;;;;;;;11.82;5.10;;;;;;;12.23;94.09;102247.09;5024562;28;20520;-87
2021/10/27 06:52:05;;;;;;;18.63;5.05;;;;;;;12.21;93.92;102241.88;5024587;28;20035;-84
2021/10/27 06:54:30;;;;;;;22.00;5.22;;;;;;;12.23;94.03;102255.94;5027955;28;20112;-85
2021/10/27 06:56:56;;;;;;;16.98;5.28;;;;;;;12.23;94.59;102253.25;5030028;28;20049;-85
2021/10/27 07:15:29;;;;;;;18.10;5.45;;;;;;;12.20;93.90;102277.50;5006676;28;20050;-83
2021/10/27 07:17:55;;;;;;;11.18;5.60;;;;;;;12.21;93.57;102262.34;5028735;28;20052;-83
2021/10/27 07:20:24;;;;;;;17.98;5.70;;;;;;;12.23;93.87;102265.78;5028812;28;20017;-90
2021/10/27 07:22:50;;;;;;;12.27;5.65;;;;;;;12.22;93.78;102266.72;5031197;28;20407;-89
2021/10/27 07:25:16;;;;;;;16.98;6.20;;;;;;;12.24;93.79;102259.44;5032160;28;20044;-79
2021/10/27 07:27:42;;;;;;;12.65;5.57;;;;;;;12.23;93.86;102255.94;5031719;28;20120;-82
2021/10/27 07:30:08;;;;;;;18.25;5.25;;;;;;;12.22;93.72;102259.56;5047177;28;20040;-80
2021/10/27 07:32:35;;;;;;;22.35;5.78;;;;;;;12.22;93.89;102262.22;5051459;28;20040;-82
2021/10/27 07:35:14;;;;;;;16.20;5.35;;;;;;;12.25;93.47;102258.50;5052089;28;20060;-81
2021/10/27 07:40:41;;;;;;;18.60;5.55;;;;;;;12.30;93.98;102270.53;5050952;28;20268;-84
2021/10/27 07:43:11;;;;;;;18.58;5.30;;;;;;;12.34;93.10;102271.13;5052556;28;20029;-81
2021/10/27 07:45:38;;;;;;;18.33;5.50;;;;;;;12.35;93.09;102265.69;5051130;28;20071;-82
2021/10/27 07:48:04;;;;;;;13.52;5.00;;;;;;;12.38;92.80;102266.44;5052331;28;20044;-86
2021/10/27 07:50:31;;;;;;;12.05;5.00;;;;;;;12.40;92.49;102267.16;5050991;28;20441;-85
2021/10/27 07:53:06;;;;;;;14.32;4.68;;;;;;;12.46;92.46;102264.00;5054056;28;20104;-83
2021/10/27 07:55:33;;;;;;;15.55;4.82;;;;;;;12.51;91.78;102268.03;5057105;28;20044;-88
2021/10/27 07:58:01;;;;;;;12.65;5.28;;;;;;;12.56;90.95;102267.69;5056299;28;20397;-86
2021/10/27 08:00:26;;;;;;;17.75;5.35;;;;;;;12.59;91.57;102266.59;5051029;28;20067;-80
2021/10/27 08:02:52;;;;;;;13.20;4.45;;;;;;;12.60;91.67;102271.84;5053416;28;20484;-91
2021/10/27 08:05:19;;;;;;;11.05;4.38;;;;;;;12.63;91.20;102270.72;5051043;28;20037;-87
2021/10/27 08:07:49;;;;;;;12.65;3.90;;;;;;;12.67;91.24;102275.75;5051472;28;20029;-85
2021/10/27 08:10:19;;;;;;;17.52;5.03;;;;;;;12.70;89.71;102274.63;5051990;28;20174;-83
2021/10/27 08:12:46;;;;;;;15.73;4.03;;;;;;;12.68;90.65;102277.41;5049765;28;20523;-82
2021/10/27 08:15:13;;;;;;;13.27;4.50;;;;;;;12.67;90.66;102282.88;5051309;28;20029;-81
2021/10/27 08:17:40;;;;;;;12.82;4.50;;;;;;;12.67;90.65;102277.53;5050603;28;20060;-84
2021/10/27 08:20:07;;;;;;;21.10;4.60;;;;;;;12.74;89.97;102275.25;5051567;28;20064;-86
2021/10/27 08:22:33;;;;;;;17.42;4.20;;;;;;;12.82;90.06;102272.84;5050615;28;20485;-84
2021/10/27 08:25:02;;;;;;;12.82;4.03;;;;;;;12.86;89.75;102275.16;5051265;28;20040;-83
2021/10/27 08:27:30;;;;;;;10.60;4.00;;;;;;;12.91;89.59;102271.28;5050433;28;20033;-81
2021/10/27 08:29:57;;;;;;;12.32;4.25;;;;;;;12.94;89.25;102287.06;5051470;28;20025;-86
2021/10/27 08:34:54;;;;;;;14.32;4.25;;;;;;;12.97;89.51;102282.34;5051135;28;20047;-87
2021/10/27 08:37:22;;;;;;;9.30;3.75;;;;;;;13.03;88.24;102292.56;5051264;28;20461;-84
2021/10/27 08:39:47;;;;;;;12.20;4.05;;;;;;;13.06;88.19;102288.78;5050556;28;20029;-83
2021/10/27 08:42:13;;;;;;;12.70;3.88;;;;;;;13.07;88.41;102285.13;5051925;28;20041;-80
2021/10/27 08:44:41;;;;;;;8.82;3.60;;;;;;;13.06;88.44;102286.09;5051333;28;20485;-84
2021/10/27 08:47:07;;;;;;;9.05;3.50;;;;;;;13.09;88.29;102290.34;5051317;28;20025;-89
2021/10/27 08:49:34;;;;;;;10.63;3.35;;;;;;;13.14;87.78;102281.00;5049482;28;20525;-83
2021/10/27 08:52:04;;;;;;;9.10;3.63;;;;;;;13.17;86.92;102301.31;5050734;28;20025;-81
2021/10/27 08:54:30;;;;;;;7.72;3.17;;;;;;;13.14;86.88;102302.41;5051289;28;20350;-81
2021/10/27 08:56:58;;;;;;;14.77;4.40;;;;;;;13.18;86.24;102317.22;5051217;28;20039;-81
2021/10/27 08:59:34;;;;;;;10.63;3.70;;;;;;;13.19;86.97;102318.06;5051325;28;20115;-82
2021/10/27 09:07:59;;;;;;;8.13;3.90;;;;;;;13.25;86.87;102311.41;5050738;28;20037;-79
2021/10/27 10:05:42;;;;;;;11.00;4.38;;;;;;;13.68;84.15;102316.88;5048793;28;20052;-78
2021/10/27 10:08:07;;;;;;;17.77;4.78;;;;;;;13.76;83.10;102318.91;5049824;28;20028;-81
2021/10/27 10:10:33;;;;;;;12.48;4.40;;;;;;;13.77;83.97;102325.97;5049385;28;20041;-80
2021/10/27 10:12:59;;;;;;;11.50;4.80;;;;;;;13.77;83.11;102325.97;5031291;28;20037;-80
2021/10/27 10:15:27;;;;;;;11.45;4.22;;;;;;;13.84;82.67;102331.66;5049537;28;20090;-80
2021/10/27 10:17:54;;;;;;;10.68;4.57;;;;;;;13.81;83.19;102342.63;5048856;28;20562;-81
2021/10/27 10:20:22;;;;;;;11.18;4.68;;;;;;;13.80;82.70;102346.28;5049609;28;20583;-80
2021/10/27 10:22:47;;;;;;;16.83;5.30;;;;;;;13.72;82.31;102342.41;5048956;28;20036;-81
2021/10/27 10:25:24;;;;;;;7.80;4.40;;;;;;;13.74;83.18;102344.94;5049420;28;20116;-85
2021/10/27 10:27:52;;;;;;;14.40;4.97;;;;;;;13.66;83.62;102350.94;5049588;28;20091;-81
2021/10/27 10:31:00;;;;;;;9.15;4.18;;;;;;;13.64;84.63;102342.16;5052030;28;20449;-82
2021/10/27 10:33:41;;;;;;;13.30;4.63;;;;;;;13.64;83.31;102342.16;5053521;28;20032;-81
2021/10/27 10:36:13;;;;;;;12.63;4.45;;;;;;;13.63;84.16;102347.63;5053189;28;20059;-83
2021/10/27 10:39:01;;;;;;;11.50;4.70;;;;;;;13.63;83.53;102344.94;5053501;28;20103;-82
2021/10/27 10:42:00;;;;;;;10.43;4.07;;;;;;;13.62;83.29;102351.28;5052679;28;20465;-84
2021/10/27 11:43:17;;;;;;;17.20;7.00;;;;;;;13.72;82.87;102309.47;5052281;28;20045;-78
2021/10/27 11:48:08;;;;;;;11.38;6.47;;;;;;;13.80;81.89;102301.66;5051344;28;20041;-83
2021/10/27 11:50:36;;;;;;;8.25;5.95;;;;;;;13.83;81.04;102301.41;5052079;28;20037;-83
2021/10/27 11:53:05;;;;;;;11.07;5.90;;;;;;;13.85;80.86;102302.16;5051051;28;20029;-83
2021/10/27 11:55:33;;;;;;;13.93;6.35;;;;;;;13.85;81.76;102294.13;5052076;28;20060;-82
2021/10/27 11:58:00;;;;;;;12.32;6.68;;;;;;;13.91;82.19;102290.06;5051019;28;20033;-82
2021/10/27 12:00:40;;;;;;;16.88;5.50;;;;;;;14.01;81.42;102284.81;5051737;28;20044;-82
2021/10/27 12:03:22;;;;;;;12.27;6.20;;;;;;;14.10;80.63;102292.09;5051101;28;20431;-83
2021/10/27 12:05:56;;;;;;;13.77;6.00;;;;;;;14.14;80.10;102296.22;5051771;28;20583;-80
2021/10/27 12:08:59;;;;;;;9.77;5.68;;;;;;;14.15;80.69;102295.22;5051582;28;20110;-82
2021/10/27 12:17:12;;;;;;;15.45;6.78;;;;;;;14.19;79.35;102285.97;5053315;28;20086;-85
2021/10/27 12:19:24;;;;;;;14.68;8.43;;;;;;;14.16;80.26;102285.38;5052822;28;20053;-85
2021/10/27 12:22:03;;;;;;;17.00;8.80;;;;;;;14.15;79.91;102291.72;5054098;28;20454;-89
2021/10/27 12:24:39;;;;;;;13.85;8.60;;;;;;;14.08;80.00;102286.03;5054367;28;20032;-83
2021/10/27 12:27:27;;;;;;;20.48;9.18;;;;;;;14.06;80.99;102275.44;5054032;28;20036;-85
2021/10/27 12:29:55;;;;;;;16.80;9.25;;;;;;;14.11;79.74;102270.56;5053744;28;20021;-83
2021/10/27 12:32:22;;;;;;;15.55;9.25;;;;;;;14.06;79.94;102264.75;5055181;28;20033;-79
2021/10/27 12:34:54;;;;;;;14.50;8.43;;;;;;;14.10;79.55;102270.69;5056473;28;20044;-80
2021/10/27 12:37:32;;;;;;;15.57;9.02;;;;;;;14.08;79.69;102264.63;5055793;28;20029;-83
2021/10/27 12:40:42;;;;;;;15.82;8.48;;;;;;;14.12;79.97;102263.38;5053968;28;20112;-86
2021/10/27 12:43:10;;;;;;;17.45;8.45;;;;;;;14.15;79.83;102267.63;5054360;28;20362;-89
2021/10/27 12:45:46;;;;;;;13.52;7.80;;;;;;;14.21;78.43;102265.28;5054061;28;20079;-90
2021/10/27 12:48:17;;;;;;;11.55;7.95;;;;;;;14.23;78.36;102271.34;5053217;28;20028;-89
2021/10/27 12:51:06;;;;;;;11.68;8.45;;;;;;;14.32;79.56;102256.34;5052989;28;20086;-84
2021/10/27 12:53:46;;;;;;;14.98;8.30;;;;;;;14.42;77.64;102257.28;5053726;28;20029;-90
2021/10/27 12:56:15;;;;;;;18.48;7.93;;;;;;;14.54;78.68;102257.19;5053158;28;20033;-88
2021/10/27 12:58:45;;;;;;;13.20;7.50;;;;;;;14.64;78.45;102258.16;5053367;28;20078;-82
2021/10/27 13:04:28;;;;;;;12.35;6.75;;;;;;;14.93;77.01;102250.28;5053283;28;20119;-84
2021/10/27 13:06:59;;;;;;;12.27;7.28;;;;;;;14.93;76.20;102252.13;5053329;28;20041;-84
2021/10/27 13:15:05;;;;;;;13.60;7.10;;;;;;;14.87;77.45;102256.19;5053361;28;20060;-86
2021/10/27 13:17:45;;;;;;;12.75;7.18;;;;;;;14.79;77.43;102254.19;5052973;28;20036;-85
2021/10/27 13:31:49;;;;;;;10.15;6.90;;;;;;;14.46;77.85;102237.31;5030837;28;20041;-81
2021/10/27 13:34:14;;;;;;;14.80;6.47;;;;;;;14.45;76.61;102232.06;5030563;28;20038;-89
2021/10/27 13:36:40;;;;;;;13.15;6.63;;;;;;;14.51;77.21;102233.38;5041012;28;20094;-81
2021/10/27 13:39:05;;;;;;;27.70;6.68;;;;;;;14.45;77.40;102234.72;5052245;28;20029;-87
2021/10/27 13:41:31;;;;;;;16.27;6.28;;;;;;;14.50;75.90;102235.19;5053316;28;20041;-79
2021/10/27 13:44:04;;;;;;;13.23;6.55;;;;;;;14.46;77.32;102245.34;5052763;28;20025;-77
2021/10/27 13:46:38;;;;;;;13.35;6.63;;;;;;;14.45;77.77;102248.13;5047769;28;20073;-85
2021/10/27 14:08:08;;;;;;;13.65;6.63;;;;;;;14.28;78.81;102230.81;5047893;28;20504;-81
2021/10/27 14:10:47;;;;;;;16.40;7.00;;;;;;;14.24;78.01;102229.38;5048493;28;20037;-86
2021/10/27 14:13:21;;;;;;;15.90;7.03;;;;;;;14.22;78.83;102223.31;5052858;28;20082;-79
2021/10/27 14:18:43;;;;;;;13.90;6.13;;;;;;;14.37;76.59;102224.69;5047671;28;20092;-87
2021/10/27 14:48:22;;;;;;;13.32;7.00;;;;;;;13.67;79.57;102229.56;5052146;28;20051;-81
2021/10/27 14:51:07;;;;;;;11.00;6.68;;;;;;;13.56;79.20;102229.63;5052312;28;20029;-79
2021/10/27 14:59:00;;;;;;;13.10;6.68;;;;;;;13.34;79.88;102217.97;5051677;28;20129;-86
2021/10/27 15:21:07;;;;;;;9.23;6.30;;;;;;;12.92;80.31;102207.03;5055372;28;20052;-78
2021/10/27 15:23:41;;;;;;;10.88;6.60;;;;;;;12.98;79.78;102198.53;5053508;28;20494;-83
2021/10/27 15:29:07;;;;;;;10.13;6.80;;;;;;;12.97;80.07;102188.84;5054961;28;20044;-88
2021/10/27 15:31:44;;;;;;;10.40;6.65;;;;;;;12.84;80.29;102194.28;5054816;28;20029;-83
2021/10/27 15:45:40;;;;;;;11.02;6.53;;;;;;;12.35;82.23;102203.44;5043577;28;20049;-79
2021/10/27 15:50:59;;;;;;;12.55;7.22;;;;;;;12.24;83.40;102206.94;5054519;28;20500;-82
2021/10/27 15:53:24;;;;;;;12.30;7.15;;;;;;;12.20;82.47;102201.97;5054188;28;20044;-81
2021/10/27 15:55:50;;;;;;;13.98;7.85;;;;;;;12.17;82.90;102200.38;5053180;28;20033;-80